createdAt,value
2023-03-15T00:00:43.513Z,1.60
2023-03-15T00:03:09.836Z,1.62
2023-03-15T00:05:36.248Z,1.63
2023-03-15T00:08:04.460Z,1.61
2023-03-15T00:10:31.077Z,1.97
2023-03-15T00:12:57.422Z,2.15
2023-03-15T00:15:23.765Z,2.14
2023-03-15T00:17:50.080Z,2.09
2023-03-15T00:20:16.429Z,1.75
2023-03-15T00:22:42.823Z,1.90
2023-03-15T00:25:09.149Z,1.97
2023-03-15T00:27:35.535Z,1.95
2023-03-15T00:30:01.950Z,1.86
2023-03-15T00:32:28.366Z,1.74
2023-03-15T00:34:54.716Z,1.19
2023-03-15T00:37:22.824Z,1.13
2023-03-15T00:39:49.180Z,1.30
2023-03-15T00:42:15.536Z,0.98
2023-03-15T00:44:41.958Z,1.45
2023-03-15T00:47:08.279Z,1.38
2023-03-15T00:49:34.653Z,1.20
2023-03-15T00:52:01.004Z,1.41
2023-03-15T00:54:27.463Z,1.24
2023-03-15T00:56:53.806Z,1.27
2023-03-15T00:59:20.191Z,1.20
2023-03-15T01:01:46.604Z,1.61
2023-03-15T01:04:13.040Z,1.32
2023-03-15T01:06:39.439Z,1.35
2023-03-15T01:09:05.810Z,1.38
2023-03-15T01:11:32.221Z,1.44
2023-03-15T01:13:58.619Z,1.69
2023-03-15T01:16:25.013Z,1.39
2023-03-15T01:18:51.486Z,1.83
2023-03-15T01:21:17.887Z,1.87
2023-03-15T01:23:44.262Z,2.04
2023-03-15T01:26:10.673Z,1.90
2023-03-15T01:28:37.007Z,2.20
2023-03-15T01:31:03.369Z,1.69
2023-03-15T01:33:29.766Z,1.04
2023-03-15T01:35:56.164Z,1.36
2023-03-15T01:38:22.542Z,1.23
2023-03-15T01:40:48.954Z,1.19
2023-03-15T01:43:15.310Z,1.56
2023-03-15T01:45:41.724Z,1.37
2023-03-15T01:48:08.112Z,1.43
2023-03-15T01:50:34.479Z,1.05
2023-03-15T01:53:00.820Z,1.10
2023-03-15T01:55:27.225Z,1.24
2023-03-15T01:57:53.554Z,1.18
2023-03-15T02:00:19.908Z,1.02
2023-03-15T02:02:46.245Z,0.99
2023-03-15T02:05:12.661Z,1.05
2023-03-15T02:07:39.011Z,1.31
2023-03-15T02:10:05.364Z,1.45
2023-03-15T02:12:31.801Z,1.24
2023-03-15T02:14:58.164Z,1.03
2023-03-15T02:17:24.530Z,0.98
2023-03-15T02:19:50.860Z,1.07
2023-03-15T02:22:17.221Z,0.91
2023-03-15T02:24:43.575Z,0.95
2023-03-15T02:27:09.956Z,0.91
2023-03-15T02:29:36.449Z,1.09
2023-03-15T02:32:02.820Z,0.86
2023-03-15T02:34:29.170Z,1.18
2023-03-15T02:36:55.584Z,0.84
2023-03-15T02:39:21.947Z,0.88
2023-03-15T02:41:48.429Z,1.04
2023-03-15T02:44:14.844Z,1.03
2023-03-15T02:46:41.210Z,0.78
2023-03-15T02:49:07.563Z,0.90
2023-03-15T02:51:33.910Z,1.01
2023-03-15T02:54:00.272Z,1.58
2023-03-15T02:56:26.653Z,1.14
2023-03-15T02:58:53.089Z,1.17
2023-03-15T03:01:19.497Z,2.65
2023-03-15T03:03:45.855Z,0.82
2023-03-15T03:06:12.227Z,0.99
2023-03-15T03:08:38.672Z,0.97
2023-03-15T03:11:05.034Z,0.93
2023-03-15T03:13:31.377Z,1.11
2023-03-15T03:15:57.735Z,1.06
2023-03-15T03:18:24.152Z,0.91
2023-03-15T03:20:50.560Z,1.16
2023-03-15T03:23:16.872Z,1.10
2023-03-15T03:25:43.210Z,1.00
2023-03-15T03:28:09.551Z,0.89
2023-03-15T03:30:35.972Z,1.58
2023-03-15T03:33:02.502Z,2.44
2023-03-15T03:35:28.867Z,3.35
2023-03-15T03:37:55.271Z,2.18
2023-03-15T03:40:21.646Z,1.71
2023-03-15T03:42:48.045Z,2.38
2023-03-15T03:45:14.407Z,1.97
2023-03-15T03:47:40.827Z,1.69
2023-03-15T03:50:07.135Z,1.41
2023-03-15T03:52:33.439Z,0.68
2023-03-15T03:54:59.801Z,0.69
2023-03-15T03:57:26.138Z,0.84
2023-03-15T03:59:52.504Z,0.96
2023-03-15T04:02:18.915Z,0.90
2023-03-15T04:04:45.365Z,0.72
2023-03-15T04:07:11.781Z,0.75
2023-03-15T04:09:38.100Z,0.72
2023-03-15T04:12:04.507Z,0.51
2023-03-15T04:14:30.860Z,0.54
2023-03-15T04:16:57.188Z,0.76
2023-03-15T04:19:23.615Z,0.80
2023-03-15T04:21:50.078Z,0.95
2023-03-15T04:24:16.426Z,0.86
2023-03-15T04:26:42.784Z,1.07
2023-03-15T04:29:09.133Z,1.79
2023-03-15T04:31:35.501Z,1.53
2023-03-15T04:34:01.892Z,1.60
2023-03-15T04:36:28.241Z,1.91
2023-03-15T04:38:54.563Z,2.20
2023-03-15T04:41:20.893Z,1.57
2023-03-15T04:43:47.397Z,1.29
2023-03-15T04:46:13.762Z,1.67
2023-03-15T04:48:40.146Z,1.62
2023-03-15T04:51:06.518Z,1.68
2023-03-15T04:53:32.886Z,1.14
2023-03-15T04:55:59.202Z,0.77
2023-03-15T04:58:25.569Z,0.88
2023-03-15T05:00:52.001Z,0.59
2023-03-15T05:03:18.340Z,0.70
2023-03-15T05:05:44.647Z,0.64
2023-03-15T05:08:10.979Z,0.62
2023-03-15T05:10:37.281Z,0.60
2023-03-15T05:13:03.670Z,0.48
2023-03-15T05:15:30.031Z,1.14
2023-03-15T05:17:56.467Z,0.58
2023-03-15T05:20:22.818Z,0.59
2023-03-15T05:22:49.297Z,0.73
2023-03-15T05:25:15.689Z,0.57
2023-03-15T05:27:42.009Z,0.74
2023-03-15T05:30:08.403Z,0.52
2023-03-15T05:32:34.939Z,0.58
2023-03-15T05:35:01.312Z,0.50
2023-03-15T05:37:27.734Z,0.52
2023-03-15T05:39:54.067Z,0.90
2023-03-15T05:42:20.384Z,0.77
2023-03-15T05:44:46.823Z,1.49
2023-03-15T05:47:13.221Z,1.37
2023-03-15T05:49:39.682Z,1.42
2023-03-15T05:52:06.051Z,0.95
2023-03-15T05:54:32.418Z,0.64
2023-03-15T05:56:58.845Z,0.90
2023-03-15T05:59:25.222Z,0.68
2023-03-15T06:01:51.605Z,0.58
2023-03-15T06:04:18.002Z,0.63
2023-03-15T06:06:44.469Z,1.03
2023-03-15T06:09:10.862Z,0.68
2023-03-15T06:11:37.257Z,0.68
2023-03-15T06:14:03.602Z,0.58
2023-03-15T06:16:29.987Z,0.72
2023-03-15T06:18:56.368Z,0.90
2023-03-15T06:21:22.694Z,0.95
2023-03-15T06:23:49.129Z,0.56
2023-03-15T06:26:15.561Z,0.71
2023-03-15T06:28:41.880Z,0.64
2023-03-15T06:31:08.291Z,0.68
2023-03-15T06:33:34.650Z,0.70
2023-03-15T06:36:00.994Z,1.21
2023-03-15T06:38:27.384Z,1.40
2023-03-15T06:40:53.724Z,0.74
2023-03-15T06:43:20.088Z,0.58
2023-03-15T06:45:46.475Z,0.61
2023-03-15T06:48:12.893Z,0.66
2023-03-15T06:50:46.770Z,0.78
2023-03-15T06:53:13.894Z,0.89
2023-03-15T06:55:40.353Z,0.79
2023-03-15T06:58:06.724Z,0.59
2023-03-15T07:00:33.100Z,0.65
2023-03-15T07:02:59.673Z,0.83
2023-03-15T07:05:26.201Z,1.14
2023-03-15T07:07:52.567Z,1.26
2023-03-15T07:10:18.925Z,1.42
2023-03-15T07:12:45.263Z,1.49
2023-03-15T07:15:11.606Z,1.61
2023-03-15T07:17:37.962Z,1.02
2023-03-15T07:20:04.311Z,1.00
2023-03-15T07:22:30.689Z,1.24
2023-03-15T07:24:57.018Z,1.21
2023-03-15T07:27:23.351Z,1.00
2023-03-15T07:29:49.710Z,1.05
2023-03-15T07:32:16.201Z,1.35
2023-03-15T07:34:42.576Z,0.73
2023-03-15T07:37:08.916Z,0.75
2023-03-15T07:39:35.310Z,0.92
2023-03-15T07:42:01.656Z,0.79
2023-03-15T07:44:27.966Z,0.82
2023-03-15T07:46:54.330Z,0.87
2023-03-15T07:49:20.671Z,0.91
2023-03-15T07:51:46.998Z,0.91
2023-03-15T07:54:13.354Z,0.92
2023-03-15T07:56:39.714Z,0.90
2023-03-15T07:59:06.048Z,1.07
2023-03-15T08:01:32.446Z,1.20
2023-03-15T08:03:58.789Z,0.97
2023-03-15T08:06:25.155Z,0.97
2023-03-15T08:08:51.508Z,0.88
2023-03-15T08:11:17.867Z,1.50
2023-03-15T08:13:44.241Z,1.08
2023-03-15T08:16:10.673Z,0.94
2023-03-15T08:18:37.019Z,0.83
2023-03-15T08:21:03.371Z,1.05
2023-03-15T08:23:29.693Z,1.15
2023-03-15T08:25:56.018Z,1.04
2023-03-15T08:28:22.334Z,0.94
2023-03-15T08:30:48.765Z,0.96
2023-03-15T08:33:15.102Z,0.98
2023-03-15T08:35:41.541Z,1.04
2023-03-15T08:38:07.971Z,1.15
2023-03-15T08:40:34.310Z,1.28
2023-03-15T08:43:00.695Z,1.04
2023-03-15T08:45:27.087Z,1.14
2023-03-15T08:47:53.454Z,0.84
2023-03-15T08:50:19.879Z,0.90
2023-03-15T08:52:46.265Z,1.01
2023-03-15T08:55:12.615Z,0.88
2023-03-15T08:57:39.001Z,0.88
2023-03-15T09:00:05.415Z,0.85
2023-03-15T09:02:31.794Z,0.75
2023-03-15T09:04:58.135Z,0.72
2023-03-15T09:07:24.545Z,0.74
2023-03-15T09:09:50.932Z,0.86
2023-03-15T09:12:17.416Z,0.82
2023-03-15T09:14:43.842Z,0.95
2023-03-15T09:17:10.233Z,0.86
2023-03-15T09:19:36.575Z,1.04
2023-03-15T09:22:16.402Z,0.88
2023-03-15T09:24:43.388Z,0.87
2023-03-15T09:27:09.730Z,0.96
2023-03-15T09:29:36.094Z,0.90
2023-03-15T09:32:02.447Z,0.78
2023-03-15T09:34:33.266Z,0.98
2023-03-15T09:37:06.137Z,1.07
2023-03-15T09:39:32.450Z,1.18
2023-03-15T09:41:58.798Z,1.19
2023-03-15T09:44:25.177Z,1.36
2023-03-15T09:46:51.627Z,1.02
2023-03-15T09:49:18.065Z,0.87
2023-03-15T09:51:44.409Z,0.82
2023-03-15T09:54:10.722Z,0.81
2023-03-15T09:56:37.051Z,0.83
2023-03-15T09:59:03.421Z,0.85
2023-03-15T10:01:29.796Z,0.87
2023-03-15T10:03:56.196Z,0.77
2023-03-15T10:06:22.575Z,0.94
2023-03-15T10:08:48.942Z,0.88
2023-03-15T10:11:15.346Z,1.00
2023-03-15T10:13:41.705Z,0.87
2023-03-15T10:16:08.191Z,0.98
2023-03-15T10:18:34.610Z,1.10
2023-03-15T10:21:01.165Z,1.09
2023-03-15T10:23:27.551Z,0.98
2023-03-15T10:25:53.946Z,0.97
2023-03-15T10:28:20.391Z,1.23
2023-03-15T10:30:46.721Z,1.07
2023-03-15T10:33:13.111Z,1.10
2023-03-15T10:35:39.534Z,1.27
2023-03-15T10:38:05.957Z,1.01
2023-03-15T10:40:32.343Z,1.04
2023-03-15T10:42:58.711Z,1.02
2023-03-15T10:45:25.049Z,1.04
2023-03-15T10:47:59.646Z,1.31
2023-03-15T10:50:26.917Z,0.99
2023-03-15T10:52:53.270Z,1.30
2023-03-15T10:55:19.598Z,0.99
2023-03-15T10:57:45.918Z,1.16
2023-03-15T11:00:12.250Z,1.15
2023-03-15T11:02:38.617Z,1.18
2023-03-15T11:05:04.954Z,1.28
2023-03-15T11:07:31.444Z,1.23
2023-03-15T11:09:57.767Z,1.23
2023-03-15T11:12:24.181Z,1.18
2023-03-15T11:14:50.612Z,1.32
2023-03-15T11:17:17.015Z,1.30
2023-03-15T11:19:43.361Z,1.27
2023-03-15T11:22:09.743Z,1.29
2023-03-15T11:24:36.133Z,1.33
2023-03-15T11:27:02.530Z,1.18
2023-03-15T11:29:28.867Z,1.42
2023-03-15T11:31:55.299Z,1.12
2023-03-15T11:34:21.646Z,0.98
2023-03-15T11:36:55.675Z,1.26
2023-03-15T11:39:28.418Z,1.14
2023-03-15T11:41:54.743Z,1.13
2023-03-15T11:44:21.087Z,1.11
2023-03-15T11:46:47.438Z,1.07
2023-03-15T11:49:13.780Z,1.67
2023-03-15T11:51:40.154Z,1.62
2023-03-15T11:54:06.502Z,2.11
2023-03-15T11:56:32.840Z,2.93
2023-03-15T11:59:01.053Z,1.80
2023-03-15T12:01:27.558Z,1.21
2023-03-15T12:03:53.969Z,0.98
2023-03-15T12:06:20.333Z,1.13
2023-03-15T12:08:46.741Z,1.03
2023-03-15T12:11:13.074Z,1.07
2023-03-15T12:13:39.403Z,0.86
2023-03-15T12:16:05.763Z,0.84
2023-03-15T12:18:32.073Z,1.04
2023-03-15T12:20:58.418Z,1.07
2023-03-15T12:23:24.812Z,1.03
2023-03-15T12:25:55.123Z,1.07
2023-03-15T12:28:22.867Z,0.86
2023-03-15T12:30:49.280Z,0.94
2023-03-15T12:33:15.651Z,1.05
2023-03-15T12:35:42.144Z,0.85
2023-03-15T12:38:08.718Z,0.88
2023-03-15T12:40:35.338Z,0.76
2023-03-15T12:43:01.687Z,0.91
2023-03-15T12:45:28.108Z,0.96
2023-03-15T12:47:54.418Z,0.97
2023-03-15T12:50:20.730Z,0.95
2023-03-15T12:52:47.082Z,0.90
2023-03-15T12:55:13.447Z,1.00
2023-03-15T12:57:39.799Z,0.80
2023-03-15T13:00:06.293Z,0.87
2023-03-15T13:02:42.749Z,1.07
2023-03-15T13:05:10.334Z,1.02
2023-03-15T13:07:50.273Z,0.94
2023-03-15T13:10:17.331Z,0.93
2023-03-15T13:12:43.705Z,0.87
2023-03-15T13:15:10.027Z,0.84
2023-03-15T13:17:36.358Z,1.00
2023-03-15T13:20:02.698Z,1.01
2023-03-15T13:22:29.057Z,0.91
2023-03-15T13:24:55.377Z,1.10
2023-03-15T13:27:21.783Z,0.86
2023-03-15T13:29:48.151Z,0.91
2023-03-15T13:32:14.552Z,1.00
2023-03-15T13:34:40.954Z,0.87
2023-03-15T13:37:07.330Z,1.34
2023-03-15T13:39:33.738Z,0.96
2023-03-15T13:42:00.144Z,0.95
2023-03-15T13:44:26.576Z,1.00
2023-03-15T13:46:53.038Z,1.21
2023-03-15T13:49:19.538Z,1.03
2023-03-15T13:51:45.971Z,0.96
2023-03-15T13:54:12.362Z,1.17
2023-03-15T13:56:49.177Z,0.96
2023-03-15T13:59:16.168Z,1.25
2023-03-15T14:01:42.633Z,0.91
2023-03-15T14:04:09.181Z,1.05
2023-03-15T14:06:35.582Z,0.83
2023-03-15T14:09:01.917Z,0.98
2023-03-15T14:11:28.267Z,0.89
2023-03-15T14:13:54.645Z,1.46
2023-03-15T14:16:21.031Z,1.59
2023-03-15T14:18:47.423Z,0.78
2023-03-15T14:21:13.784Z,0.93
2023-03-15T14:23:40.313Z,1.58
2023-03-15T14:26:06.846Z,1.94
2023-03-15T14:28:33.558Z,1.47
2023-03-15T14:30:59.956Z,1.19
2023-03-15T14:33:26.282Z,0.84
2023-03-15T14:35:52.668Z,0.56
2023-03-15T14:38:19.049Z,0.63
2023-03-15T14:40:45.413Z,0.73
2023-03-15T14:43:11.765Z,0.70
2023-03-15T14:45:38.225Z,0.67
2023-03-15T14:48:04.635Z,0.70
2023-03-15T14:50:31.048Z,0.57
2023-03-15T14:52:57.486Z,0.55
2023-03-15T14:55:23.870Z,0.74
2023-03-15T14:57:50.222Z,0.64
2023-03-15T15:00:16.589Z,0.58
2023-03-15T15:02:43.144Z,0.64
2023-03-15T15:05:09.584Z,0.68
2023-03-15T15:07:36.000Z,0.55
2023-03-15T15:10:02.403Z,0.53
2023-03-15T15:12:28.742Z,0.44
2023-03-15T15:14:55.063Z,0.37
2023-03-15T15:17:21.423Z,0.37
2023-03-15T15:19:47.787Z,0.32
2023-03-15T15:22:14.123Z,0.43
2023-03-15T15:24:40.481Z,0.43
2023-03-15T15:27:06.890Z,0.32
2023-03-15T15:29:33.289Z,0.19
2023-03-15T15:31:59.648Z,0.33
2023-03-15T15:34:26.196Z,0.25
2023-03-15T15:36:52.569Z,0.29
2023-03-15T15:39:18.976Z,0.21
2023-03-15T15:41:45.318Z,0.33
2023-03-15T15:44:11.648Z,0.25
2023-03-15T15:46:37.990Z,0.20
2023-03-15T15:49:04.513Z,0.31
2023-03-15T15:51:30.880Z,0.33
2023-03-15T15:53:57.257Z,0.27
2023-03-15T15:56:23.736Z,0.23
2023-03-15T15:58:50.080Z,0.26
2023-03-15T16:01:16.513Z,0.27
2023-03-15T16:03:42.891Z,0.30
2023-03-15T16:06:09.336Z,0.28
2023-03-15T16:08:35.701Z,0.24
2023-03-15T16:11:02.034Z,0.24
2023-03-15T16:13:28.375Z,0.24
2023-03-15T16:15:54.927Z,0.16
2023-03-15T16:18:21.360Z,0.16
2023-03-15T16:20:47.764Z,0.21
2023-03-15T16:23:14.133Z,0.16
2023-03-15T16:25:40.534Z,0.27
2023-03-15T16:28:06.876Z,0.30
2023-03-15T16:30:33.312Z,0.20
2023-03-15T16:32:59.728Z,0.23
2023-03-15T16:35:26.136Z,0.31
2023-03-15T16:37:52.514Z,0.26
2023-03-15T16:40:18.886Z,0.30
2023-03-15T16:42:45.370Z,0.24
2023-03-15T16:45:11.814Z,0.22
2023-03-15T16:47:38.208Z,0.26
2023-03-15T16:50:04.636Z,0.21
2023-03-15T16:52:30.984Z,0.26
2023-03-15T16:54:57.501Z,0.21
2023-03-15T16:57:23.888Z,0.27
2023-03-15T16:59:50.242Z,0.22
2023-03-15T17:02:16.566Z,0.30
2023-03-15T17:04:43.003Z,0.23
2023-03-15T17:07:09.547Z,0.23
2023-03-15T17:09:35.925Z,0.23
2023-03-15T17:12:02.349Z,0.24
2023-03-15T17:14:28.797Z,0.32
2023-03-15T17:16:55.174Z,0.31
2023-03-15T17:19:21.551Z,0.29
2023-03-15T17:21:47.882Z,0.43
2023-03-15T17:24:14.285Z,0.68
2023-03-15T17:26:40.612Z,0.59
2023-03-15T17:29:06.958Z,0.37
2023-03-15T17:31:33.306Z,0.26
2023-03-15T17:33:59.632Z,0.33
2023-03-15T17:36:26.026Z,0.34
2023-03-15T17:38:52.489Z,0.65
2023-03-15T17:41:18.883Z,0.96
2023-03-15T17:43:45.271Z,0.67
2023-03-15T17:46:11.657Z,0.58
2023-03-15T17:48:38.036Z,0.87
2023-03-15T17:51:04.403Z,0.76
2023-03-15T17:53:30.806Z,1.37
2023-03-15T17:55:57.339Z,0.86
2023-03-15T17:58:23.783Z,0.80
2023-03-15T18:00:50.207Z,2.17
2023-03-15T18:03:16.636Z,0.88
2023-03-15T18:05:43.040Z,1.11
2023-03-15T18:08:09.581Z,1.24
2023-03-15T18:10:36.002Z,1.77
2023-03-15T18:13:02.415Z,0.99
2023-03-15T18:15:28.862Z,1.06
2023-03-15T18:17:55.209Z,1.17
2023-03-15T18:20:21.547Z,0.83
2023-03-15T18:22:47.974Z,0.79
2023-03-15T18:25:14.342Z,0.83
2023-03-15T18:27:40.701Z,0.88
2023-03-15T18:30:07.080Z,1.21
2023-03-15T18:32:33.523Z,2.56
2023-03-15T18:34:59.885Z,1.05
2023-03-15T18:37:26.264Z,1.01
2023-03-15T18:39:52.602Z,0.88
2023-03-15T18:42:18.964Z,1.01
2023-03-15T18:44:45.358Z,0.85
2023-03-15T18:47:11.700Z,0.65
2023-03-15T18:49:38.139Z,0.63
2023-03-15T18:52:04.559Z,1.05
2023-03-15T18:54:30.893Z,0.77
2023-03-15T18:56:57.345Z,0.76
2023-03-15T18:59:25.849Z,0.72
2023-03-15T19:01:52.323Z,1.02
2023-03-15T19:04:18.691Z,1.69
2023-03-15T19:06:45.099Z,2.46
2023-03-15T19:09:11.502Z,2.30
2023-03-15T19:11:37.952Z,2.07
2023-03-15T19:14:04.350Z,1.50
2023-03-15T19:16:30.750Z,0.91
2023-03-15T19:18:57.295Z,0.67
2023-03-15T19:21:23.649Z,0.82
2023-03-15T19:23:50.004Z,0.71
2023-03-15T19:26:16.374Z,0.67
2023-03-15T19:28:42.756Z,0.72
2023-03-15T19:31:09.142Z,0.55
2023-03-15T19:33:35.619Z,0.52
2023-03-15T19:36:01.986Z,0.65
2023-03-15T19:38:28.344Z,0.49
2023-03-15T19:40:54.702Z,0.63
2023-03-15T19:43:21.054Z,0.73
2023-03-15T19:45:47.437Z,1.78
2023-03-15T19:48:16.108Z,1.15
2023-03-15T19:50:42.946Z,1.32
2023-03-15T19:53:09.358Z,0.76
2023-03-15T19:55:35.733Z,0.98
2023-03-15T19:58:02.138Z,1.37
2023-03-15T20:00:29.546Z,1.10
2023-03-15T20:02:55.895Z,1.45
2023-03-15T20:05:23.355Z,3.82
2023-03-15T20:07:49.774Z,2.59
2023-03-15T20:10:16.114Z,1.38
2023-03-15T20:12:42.816Z,1.31
2023-03-15T20:15:09.328Z,1.28
2023-03-15T20:17:35.722Z,3.07
2023-03-15T20:20:02.073Z,1.97
2023-03-15T20:22:28.482Z,1.15
2023-03-15T20:24:54.881Z,1.88
2023-03-15T20:27:21.306Z,1.04
2023-03-15T20:29:47.802Z,1.38
2023-03-15T20:32:14.206Z,1.11
2023-03-15T20:34:40.644Z,1.15
2023-03-15T20:37:07.015Z,0.91
2023-03-15T20:39:33.459Z,0.99
2023-03-15T20:41:59.975Z,1.08
2023-03-15T20:44:26.361Z,1.21
2023-03-15T20:46:52.795Z,0.97
2023-03-15T20:49:19.199Z,0.83
2023-03-15T20:51:45.557Z,1.15
2023-03-15T20:54:11.896Z,0.80
2023-03-15T20:56:38.253Z,0.72
2023-03-15T20:59:04.659Z,0.70
2023-03-15T21:01:31.035Z,1.21
2023-03-15T21:04:00.293Z,3.37
2023-03-15T21:06:26.720Z,4.40
2023-03-15T21:08:53.065Z,2.71
2023-03-15T21:11:19.404Z,1.90
2023-03-15T21:13:45.745Z,1.31
2023-03-15T21:16:12.073Z,1.22
2023-03-15T21:18:38.492Z,0.79
2023-03-15T21:21:04.809Z,1.04
2023-03-15T21:23:31.197Z,1.07
2023-03-15T21:25:57.589Z,1.35
2023-03-15T21:28:23.991Z,0.99
2023-03-15T21:30:50.366Z,0.88
2023-03-15T21:33:16.776Z,0.68
2023-03-15T21:35:43.281Z,0.81
2023-03-15T21:38:09.631Z,0.83
2023-03-15T21:40:35.964Z,0.80
2023-03-15T21:43:02.354Z,0.76
2023-03-15T21:45:28.805Z,0.73
2023-03-15T21:47:55.204Z,0.99
2023-03-15T21:50:21.909Z,1.10
2023-03-15T21:52:48.530Z,0.88
2023-03-15T21:55:14.884Z,0.64
2023-03-15T21:57:41.302Z,0.54
2023-03-15T22:00:07.751Z,0.76
2023-03-15T22:02:34.185Z,0.71
2023-03-15T22:05:00.633Z,0.92
2023-03-15T22:07:27.051Z,0.95
2023-03-15T22:09:53.574Z,0.99
2023-03-15T22:12:19.954Z,0.99
2023-03-15T22:14:51.602Z,1.02
2023-03-15T22:17:20.696Z,0.99
2023-03-15T22:19:47.101Z,1.29
2023-03-15T22:22:13.445Z,1.46
2023-03-15T22:24:39.871Z,1.18
2023-03-15T22:27:06.232Z,1.45
2023-03-15T22:29:32.644Z,1.39
2023-03-15T22:32:03.406Z,1.22
2023-03-15T22:34:29.764Z,0.88
2023-03-15T22:36:56.142Z,0.83
2023-03-15T22:39:22.556Z,0.64
2023-03-15T22:41:49.007Z,0.72
2023-03-15T22:44:15.401Z,0.79
2023-03-15T22:46:41.796Z,0.74
2023-03-15T22:49:08.236Z,0.68
2023-03-15T22:51:34.607Z,0.79
2023-03-15T22:54:00.950Z,0.61
2023-03-15T22:56:27.362Z,0.67
2023-03-15T22:58:53.756Z,0.70
2023-03-15T23:01:20.126Z,0.72
2023-03-15T23:03:46.513Z,0.76
2023-03-15T23:06:13.033Z,0.84
2023-03-15T23:08:39.383Z,0.99
2023-03-15T23:11:05.777Z,1.25
2023-03-15T23:13:32.123Z,0.66
2023-03-15T23:15:58.547Z,0.58
2023-03-15T23:18:24.957Z,0.89
2023-03-15T23:20:51.328Z,0.84
2023-03-15T23:23:17.690Z,1.09
2023-03-15T23:25:44.078Z,0.80
2023-03-15T23:28:10.478Z,0.65
2023-03-15T23:30:36.869Z,0.68
2023-03-15T23:33:03.301Z,0.78
2023-03-15T23:35:29.845Z,0.72
2023-03-15T23:37:56.242Z,0.93
2023-03-15T23:40:22.585Z,0.75
2023-03-15T23:42:48.951Z,0.60
2023-03-15T23:45:15.427Z,0.66
2023-03-15T23:47:41.863Z,0.60
2023-03-15T23:50:08.234Z,0.78
2023-03-15T23:52:34.599Z,0.68
2023-03-15T23:55:00.981Z,0.94
2023-03-15T23:57:27.312Z,1.32
2023-03-15T23:59:53.653Z,1.31
